Time;durP1;ratioP1;P1;durP2;ratioP2;P2;SDS_P1;SDS_P2;PMS_P1;PMS_P2;Temp;Humidity;BMP_temperature;BMP_pressure;BME280_temperature;BME280_humidity;BME280_pressure;Samples;Min_cycle;Max_cycle;Signal;HPM_P1;HPM_P2
2022/12/14 00:00:42;;;;;;;3.35;3.08;;;-1.70;88.10;;;;;;5033181;28;20211;-68
2022/12/14 00:03:09;;;;;;;2.15;1.95;;;-1.70;88.40;;;;;;5029816;28;20246;-67
2022/12/14 00:05:37;;;;;;;1.83;1.73;;;-1.70;88.60;;;;;;5030027;28;20568;-68
2022/12/14 00:08:04;;;;;;;3.35;1.25;;;-1.80;88.90;;;;;;5029971;28;20299;-68
2022/12/14 00:10:32;;;;;;;3.38;1.38;;;-1.80;89.20;;;;;;5044238;28;20192;-67
2022/12/14 00:12:59;;;;;;;4.25;2.80;;;-1.80;88.90;;;;;;5049610;28;20232;-67
2022/12/14 00:15:26;;;;;;;1.13;1.10;;;-1.70;89.10;;;;;;5049351;28;20208;-68
2022/12/14 00:17:52;;;;;;;11.55;3.22;;;-1.80;89.50;;;;;;5049161;28;20209;-67
2022/12/14 00:20:19;;;;;;;2.47;2.38;;;-1.70;89.40;;;;;;5036473;28;20200;-67
2022/12/14 00:22:48;;;;;;;2.45;2.25;;;-1.70;88.90;;;;;;5029714;28;20199;-68
2022/12/14 00:25:14;;;;;;;2.75;2.55;;;-1.80;89.10;;;;;;5029410;28;20204;-67
2022/12/14 00:27:43;;;;;;;2.63;2.20;;;-1.70;89.40;;;;;;5029148;28;20215;-69
2022/12/14 00:30:11;;;;;;;2.78;2.17;;;-1.70;89.20;;;;;;5039689;28;20214;-67
2022/12/14 00:32:39;;;;;;;1.95;1.85;;;-1.70;89.50;;;;;;5049609;28;21019;-68
2022/12/14 00:35:07;;;;;;;1.85;1.75;;;-1.70;89.40;;;;;;5048875;28;20207;-68
2022/12/14 00:37:34;;;;;;;4.45;1.80;;;-1.70;89.50;;;;;;5049239;28;20208;-68
2022/12/14 00:40:03;;;;;;;3.88;2.75;;;-1.70;89.70;;;;;;5037987;28;20197;-68
2022/12/14 00:42:30;;;;;;;6.65;2.97;;;-1.80;90.00;;;;;;5028829;28;20201;-68
2022/12/14 00:44:56;;;;;;;0.93;0.90;;;-1.80;90.40;;;;;;5028527;28;20212;-67
2022/12/14 00:47:23;;;;;;;2.22;2.08;;;-1.80;90.60;;;;;;5029304;28;20211;-67
2022/12/14 00:49:50;;;;;;;2.25;2.15;;;-1.70;90.20;;;;;;5029168;28;20207;-67
2022/12/14 00:52:17;;;;;;;2.15;1.98;;;-1.70;90.30;;;;;;5029021;28;20235;-67
2022/12/14 00:54:44;;;;;;;0.73;0.73;;;-1.70;90.40;;;;;;5028862;28;20213;-67
2022/12/14 00:57:12;;;;;;;1.98;1.88;;;-1.70;90.40;;;;;;5028213;28;20572;-67
2022/12/14 00:59:39;;;;;;;1.55;1.48;;;-1.80;90.30;;;;;;5034270;28;20655;-69
2022/12/14 01:02:06;;;;;;;1.40;1.40;;;-1.80;90.50;;;;;;5048905;28;20220;-67
2022/12/14 01:04:32;;;;;;;1.65;1.55;;;-1.80;90.60;;;;;;5048657;28;20211;-68
2022/12/14 01:06:59;;;;;;;1.63;1.63;;;-1.80;90.90;;;;;;5048571;28;20200;-67
2022/12/14 01:09:26;;;;;;;1.00;1.00;;;-1.80;90.70;;;;;;5043990;28;20189;-67
2022/12/14 01:11:53;;;;;;;4.85;2.22;;;-1.80;90.80;;;;;;5028648;28;20239;-67
2022/12/14 01:14:22;;;;;;;3.08;2.78;;;-1.80;90.60;;;;;;5028591;28;20633;-67
2022/12/14 01:16:49;;;;;;;2.20;2.08;;;-1.70;90.60;;;;;;5028549;28;20208;-68
2022/12/14 01:19:16;;;;;;;1.77;1.60;;;-1.70;90.40;;;;;;5029843;28;20688;-68
2022/12/14 01:21:43;;;;;;;1.83;1.75;;;-1.70;90.30;;;;;;5048758;28;20562;-67
2022/12/14 01:24:10;;;;;;;0.85;0.85;;;-1.70;90.50;;;;;;5047753;28;20207;-68
2022/12/14 01:26:39;;;;;;;1.75;1.75;;;-1.70;90.50;;;;;;5048531;28;20955;-68
2022/12/14 01:29:06;;;;;;;4.25;2.58;;;-1.70;90.30;;;;;;5047157;28;20637;-69
2022/12/14 01:31:37;;;;;;;6.53;2.97;;;-1.70;90.30;;;;;;5028410;28;20285;-69
2022/12/14 01:34:06;;;;;;;2.20;1.77;;;-1.60;90.40;;;;;;5028463;28;20200;-67
2022/12/14 01:36:35;;;;;;;3.08;2.65;;;-1.70;90.40;;;;;;5028148;28;20216;-67
2022/12/14 01:39:05;;;;;;;2.28;1.83;;;-1.70;90.50;;;;;;5040904;28;20206;-68
2022/12/14 01:41:33;;;;;;;1.35;1.25;;;-1.70;90.30;;;;;;5048632;28;20208;-68
2022/12/14 01:44:02;;;;;;;2.17;2.08;;;-1.70;90.50;;;;;;5029692;28;20614;-67
2022/12/14 01:46:33;;;;;;;2.50;2.08;;;-1.70;90.70;;;;;;5027921;28;20216;-68
2022/12/14 01:49:06;;;;;;;3.58;3.38;;;-1.60;90.50;;;;;;5028156;28;20200;-67
2022/12/14 01:51:36;;;;;;;1.08;1.08;;;-1.70;90.60;;;;;;5028553;28;20210;-67
2022/12/14 01:54:07;;;;;;;1.98;1.83;;;-1.60;90.60;;;;;;5034485;28;20194;-68
2022/12/14 01:56:38;;;;;;;5.88;2.22;;;-1.60;90.40;;;;;;5027852;28;20206;-67
2022/12/14 01:59:11;;;;;;;3.55;2.28;;;-1.50;90.30;;;;;;5028278;28;20972;-66
2022/12/14 02:01:38;;;;;;;1.75;1.65;;;-1.40;90.40;;;;;;5036549;28;20208;-66
2022/12/14 02:04:07;;;;;;;1.55;1.40;;;-1.50;90.50;;;;;;5047277;28;20213;-66
2022/12/14 02:06:37;;;;;;;0.98;0.98;;;-1.60;90.60;;;;;;5046645;28;20212;-66
2022/12/14 02:09:09;;;;;;;3.33;2.95;;;-1.70;90.80;;;;;;5047662;28;20354;-67
2022/12/14 02:11:49;;;;;;;1.48;1.45;;;-1.70;90.70;;;;;;5039399;28;20208;-67
2022/12/14 02:14:17;;;;;;;1.90;1.80;;;-1.60;90.90;;;;;;5027066;28;20203;-66
2022/12/14 02:16:44;;;;;;;3.30;3.03;;;-1.50;90.50;;;;;;5027698;28;20203;-66
2022/12/14 02:19:13;;;;;;;6.38;3.47;;;-1.50;90.40;;;;;;5027555;28;20227;-66
2022/12/14 02:22:06;;;;;;;1.65;1.58;;;-1.60;90.70;;;;;;5036345;28;20200;-66
2022/12/14 02:24:55;;;;;;;2.25;1.30;;;-1.60;90.70;;;;;;5047261;28;20744;-67
2022/12/14 02:27:40;;;;;;;2.15;1.92;;;-1.60;90.60;;;;;;5047772;28;20198;-66
2022/12/14 02:30:14;;;;;;;1.85;1.77;;;-1.60;90.70;;;;;;5047423;28;20207;-66
2022/12/14 02:33:21;;;;;;;2.90;2.70;;;-1.30;90.40;;;;;;5030951;28;20567;-66
2022/12/14 02:35:51;;;;;;;2.03;1.63;;;-1.50;90.30;;;;;;5027496;28;20206;-66
2022/12/14 02:38:44;;;;;;;0.85;0.85;;;-1.60;90.50;;;;;;5027531;28;20215;-66
2022/12/14 02:41:17;;;;;;;2.28;2.15;;;-1.60;90.80;;;;;;5047226;28;20208;-67
2022/12/14 02:43:56;;;;;;;0.93;0.93;;;-1.60;90.60;;;;;;5030850;28;20204;-66
2022/12/14 02:46:29;;;;;;;2.53;1.25;;;-1.40;90.50;;;;;;5027403;28;20855;-66
2022/12/14 02:49:04;;;;;;;2.45;1.33;;;-1.50;90.50;;;;;;5027633;28;20270;-66
2022/12/14 02:51:46;;;;;;;4.03;3.42;;;-1.40;90.50;;;;;;5027444;28;20262;-66
2022/12/14 02:54:18;;;;;;;1.88;1.70;;;-1.40;90.40;;;;;;5027161;28;20228;-65
2022/12/14 02:56:52;;;;;;;2.55;2.35;;;-1.50;90.50;;;;;;5041194;28;20255;-66
2022/12/14 02:59:22;;;;;;;6.47;2.25;;;-1.60;90.70;;;;;;5047244;28;20541;-66
2022/12/14 03:01:53;;;;;;;5.00;4.53;;;-1.50;90.60;;;;;;5047777;28;20202;-65
2022/12/14 03:04:21;;;;;;;1.02;1.02;;;-1.50;90.80;;;;;;5050476;28;20655;-66
2022/12/14 03:07:02;;;;;;;6.93;5.45;;;-1.50;90.90;;;;;;5036328;28;20213;-66
2022/12/14 03:09:31;;;;;;;1.30;1.20;;;-1.50;90.90;;;;;;5030970;28;20200;-66
2022/12/14 03:12:05;;;;;;;3.95;1.77;;;-1.40;91.00;;;;;;5030999;28;20237;-66
2022/12/14 03:14:39;;;;;;;1.55;1.55;;;-1.50;90.90;;;;;;5030786;28;20704;-68
2022/12/14 03:17:14;;;;;;;1.85;1.75;;;-1.50;91.00;;;;;;5047208;28;20228;-66
2022/12/14 03:19:46;;;;;;;1.95;1.75;;;-1.50;91.30;;;;;;5050644;28;20666;-67
2022/12/14 03:22:18;;;;;;;2.10;1.90;;;-1.40;91.50;;;;;;5050886;28;20300;-67
2022/12/14 03:24:52;;;;;;;7.18;2.10;;;-1.50;91.60;;;;;;5050565;28;20261;-67
2022/12/14 03:27:24;;;;;;;0.70;0.70;;;-1.50;91.80;;;;;;5031940;28;20229;-67
2022/12/14 03:29:56;;;;;;;3.00;2.35;;;-1.50;92.00;;;;;;5030579;28;20225;-66
2022/12/14 03:32:27;;;;;;;1.95;1.85;;;-1.50;92.10;;;;;;5030761;28;20255;-67
2022/12/14 03:35:01;;;;;;;4.53;4.22;;;-1.50;92.10;;;;;;5030744;28;20645;-67
2022/12/14 03:37:36;;;;;;;0.93;0.93;;;-1.50;92.20;;;;;;5049087;28;20627;-67
2022/12/14 03:40:04;;;;;;;1.63;1.52;;;-1.40;92.20;;;;;;5050265;28;20822;-66
2022/12/14 03:42:39;;;;;;;1.98;1.88;;;-1.40;92.00;;;;;;5043469;28;20199;-66
2022/12/14 03:45:15;;;;;;;2.22;2.13;;;-1.40;92.10;;;;;;5045447;28;20302;-66
2022/12/14 03:47:55;;;;;;;2.80;1.83;;;-1.40;92.20;;;;;;5010527;28;20558;-67
2022/12/14 03:50:26;;;;;;;2.08;1.15;;;-1.50;92.50;;;;;;5010445;28;20205;-66
2022/12/14 03:52:59;;;;;;;8.70;2.05;;;-1.60;92.60;;;;;;5010264;28;20232;-67
2022/12/14 03:55:31;;;;;;;2.20;2.10;;;-1.50;92.60;;;;;;5013744;28;20212;-67
2022/12/14 03:58:13;;;;;;;2.60;2.05;;;-1.50;92.70;;;;;;5050399;28;20204;-66
2022/12/14 04:00:48;;;;;;;2.15;2.05;;;-1.50;92.70;;;;;;5049201;28;20215;-66
2022/12/14 04:03:26;;;;;;;1.77;1.42;;;-1.40;92.60;;;;;;5049993;28;20208;-67
2022/12/14 04:05:59;;;;;;;1.20;1.20;;;-1.40;92.60;;;;;;5044433;28;20197;-66
2022/12/14 04:08:34;;;;;;;1.35;1.33;;;-1.30;92.60;;;;;;5029915;28;20677;-66
2022/12/14 04:19:35;;;;;;;3.40;1.40;;;-1.30;92.70;;;;;;5049577;28;20629;-67
2022/12/14 04:22:06;;;;;;;3.38;1.95;;;-1.40;92.50;;;;;;5049789;28;20206;-67
2022/12/14 04:27:37;;;;;;;4.38;4.07;;;-1.50;92.90;;;;;;4994445;28;20223;-68
2022/12/14 04:30:05;;;;;;;3.70;2.08;;;-1.40;93.20;;;;;;5029338;28;20209;-67
2022/12/14 04:32:36;;;;;;;2.45;2.22;;;-1.60;93.00;;;;;;5029463;28;20207;-67
2022/12/14 04:35:11;;;;;;;5.55;2.75;;;-1.50;93.20;;;;;;5029149;28;20230;-66
2022/12/14 04:37:40;;;;;;;5.03;4.60;;;-1.40;93.20;;;;;;5047677;28;20200;-67
2022/12/14 04:40:10;;;;;;;2.42;2.22;;;-1.50;93.00;;;;;;5048376;28;20220;-66
2022/12/14 04:42:48;;;;;;;2.80;2.60;;;-1.50;93.20;;;;;;5042606;28;20560;-67
2022/12/14 04:45:19;;;;;;;7.28;3.08;;;-1.40;93.40;;;;;;5028885;28;20222;-66
2022/12/14 04:47:54;;;;;;;1.60;1.52;;;-1.40;93.50;;;;;;5028807;28;20205;-67
2022/12/14 04:50:26;;;;;;;3.85;3.25;;;-1.40;93.40;;;;;;5028803;28;20207;-66
2022/12/14 04:53:00;;;;;;;3.42;3.13;;;-1.40;93.30;;;;;;5034417;28;20226;-67
2022/12/14 04:55:33;;;;;;;2.65;2.45;;;-1.40;93.40;;;;;;5048713;28;20211;-67
2022/12/14 04:58:05;;;;;;;1.60;1.50;;;-1.40;93.30;;;;;;5048627;28;20661;-67
2022/12/14 05:00:37;;;;;;;3.00;1.33;;;-1.50;93.50;;;;;;5048704;28;20203;-66
2022/12/14 05:03:18;;;;;;;0.60;0.60;;;-1.50;93.60;;;;;;5040145;28;20214;-68
2022/12/14 05:05:58;;;;;;;3.60;3.30;;;-1.40;93.70;;;;;;5028265;28;20225;-67
2022/12/14 05:08:41;;;;;;;2.63;2.40;;;-1.30;93.50;;;;;;5027574;28;20208;-66
2022/12/14 05:11:15;;;;;;;4.32;2.55;;;-1.20;93.40;;;;;;5028570;28;20217;-68
2022/12/14 05:13:47;;;;;;;0.90;0.68;;;-1.20;93.50;;;;;;5027118;28;20236;-67
2022/12/14 05:16:17;;;;;;;1.90;1.80;;;-1.30;93.30;;;;;;5028020;28;20288;-67
2022/12/14 05:18:44;;;;;;;4.18;3.80;;;-1.20;93.40;;;;;;5028139;28;20586;-67
2022/12/14 05:21:45;;;;;;;4.00;2.80;;;-1.40;93.40;;;;;;5027712;28;20207;-67
2022/12/14 05:24:00;;;;;;;2.42;2.33;;;-1.40;93.50;;;;;;5041366;28;20210;-68
2022/12/14 05:26:27;;;;;;;2.67;2.53;;;-1.40;93.50;;;;;;5047825;28;20692;-66
2022/12/14 05:28:54;;;;;;;2.40;2.28;;;-1.40;93.80;;;;;;5048101;28;20225;-69
2022/12/14 05:31:22;;;;;;;2.50;2.30;;;-1.20;93.30;;;;;;5048522;28;20207;-67
2022/12/14 05:33:49;;;;;;;2.20;2.10;;;-1.30;93.40;;;;;;5034411;28;20314;-69
2022/12/14 05:36:18;;;;;;;2.75;2.53;;;-1.30;93.60;;;;;;5027397;28;20208;-68
2022/12/14 05:38:45;;;;;;;2.65;2.45;;;-1.30;93.70;;;;;;5034206;28;20198;-68
2022/12/14 05:41:12;;;;;;;2.00;1.85;;;-1.20;93.60;;;;;;5035909;28;20294;-68
2022/12/14 05:43:39;;;;;;;7.38;2.22;;;-1.20;93.70;;;;;;5034774;28;20202;-66
2022/12/14 05:46:06;;;;;;;9.20;1.25;;;-1.30;93.80;;;;;;5037062;28;20233;-68
2022/12/14 05:48:34;;;;;;;2.15;1.90;;;-1.30;94.00;;;;;;5036092;28;20334;-69
2022/12/14 05:51:06;;;;;;;3.30;3.08;;;-1.30;94.00;;;;;;5029955;28;20204;-68
2022/12/14 05:53:34;;;;;;;4.57;4.28;;;-1.30;94.10;;;;;;5024810;28;20246;-67
2022/12/14 05:56:01;;;;;;;12.27;4.03;;;-1.40;94.20;;;;;;5026458;28;20214;-67
2022/12/14 05:58:28;;;;;;;2.10;1.98;;;-1.30;94.30;;;;;;5027242;28;20499;-67
2022/12/14 06:00:59;;;;;;;5.68;3.30;;;-1.40;94.30;;;;;;5027677;28;20196;-67
2022/12/14 06:03:26;;;;;;;1.67;1.52;;;-1.30;94.40;;;;;;5025953;28;20214;-67
2022/12/14 06:05:53;;;;;;;2.72;2.53;;;-1.30;94.40;;;;;;5026619;28;20577;-67
2022/12/14 06:08:21;;;;;;;4.50;3.10;;;-1.30;94.40;;;;;;5027643;28;20204;-69
2022/12/14 06:10:49;;;;;;;4.38;4.15;;;-1.30;94.30;;;;;;5027411;28;20206;-66
2022/12/14 06:13:15;;;;;;;2.03;1.92;;;-1.20;94.30;;;;;;5035576;28;20684;-67
2022/12/14 06:15:42;;;;;;;1.85;1.75;;;-1.20;94.20;;;;;;5046918;28;20691;-67
2022/12/14 06:18:09;;;;;;;2.35;1.38;;;-1.30;94.60;;;;;;5046398;28;20236;-67
2022/12/14 06:20:36;;;;;;;1.98;1.88;;;-1.30;94.70;;;;;;5047501;28;20205;-67
2022/12/14 06:23:02;;;;;;;2.83;2.70;;;-1.40;95.30;;;;;;5039528;28;20682;-67
2022/12/14 06:25:29;;;;;;;2.95;2.33;;;-1.40;95.60;;;;;;5027274;28;20207;-67
2022/12/14 06:27:57;;;;;;;2.00;1.90;;;-1.40;95.50;;;;;;5026936;28;20573;-68
2022/12/14 06:30:25;;;;;;;5.88;4.70;;;-1.40;95.60;;;;;;5027177;28;20205;-67
2022/12/14 06:32:52;;;;;;;2.45;2.25;;;-1.40;95.90;;;;;;5021231;28;20214;-68
2022/12/14 06:35:18;;;;;;;4.80;1.50;;;-1.40;95.90;;;;;;5026587;28;20206;-67
2022/12/14 06:37:46;;;;;;;3.20;2.92;;;-1.30;96.10;;;;;;5028124;28;20541;-66
2022/12/14 06:40:12;;;;;;;4.30;3.88;;;-1.40;96.00;;;;;;5031008;28;20603;-67
2022/12/14 06:42:39;;;;;;;2.92;2.83;;;-1.40;96.20;;;;;;5030367;28;22445;-68
2022/12/14 06:45:08;;;;;;;7.25;3.83;;;-1.30;96.40;;;;;;5029605;28;21023;-67
2022/12/14 06:47:35;;;;;;;4.07;3.65;;;-1.20;96.40;;;;;;5030381;28;20317;-67
2022/12/14 06:50:02;;;;;;;9.50;7.00;;;-1.30;96.50;;;;;;5029421;28;20746;-67
2022/12/14 06:52:28;;;;;;;2.90;2.67;;;-1.30;96.60;;;;;;5030524;28;20204;-68
2022/12/14 06:54:55;;;;;;;3.65;3.20;;;-1.30;96.90;;;;;;5024370;28;20297;-67
2022/12/14 06:57:22;;;;;;;3.50;3.20;;;-1.30;96.90;;;;;;5026886;28;20206;-68
2022/12/14 06:59:49;;;;;;;2.05;1.52;;;-1.30;97.00;;;;;;5031539;28;20228;-67
2022/12/14 07:02:17;;;;;;;3.08;2.75;;;-1.30;97.50;;;;;;5030149;28;20294;-67
2022/12/14 07:04:44;;;;;;;2.30;2.20;;;-1.30;97.60;;;;;;5029418;28;20197;-66
2022/12/14 07:07:10;;;;;;;4.20;2.40;;;-1.40;97.70;;;;;;5029103;28;20207;-67
2022/12/14 07:09:38;;;;;;;4.72;4.43;;;-1.40;98.10;;;;;;5029612;28;20217;-67
2022/12/14 07:12:06;;;;;;;3.38;3.10;;;-1.30;98.00;;;;;;5029635;28;20239;-69
2022/12/14 07:14:33;;;;;;;6.50;2.90;;;-1.10;97.90;;;;;;5029270;28;20262;-68
2022/12/14 07:17:00;;;;;;;2.25;2.15;;;-1.20;97.60;;;;;;5028851;28;20302;-67
2022/12/14 07:19:28;;;;;;;3.38;3.13;;;-1.20;97.60;;;;;;5029849;28;20828;-67
2022/12/14 07:21:55;;;;;;;4.22;3.92;;;-1.30;97.60;;;;;;5030065;28;20210;-68
2022/12/14 07:24:22;;;;;;;2.95;2.28;;;-1.30;97.80;;;;;;5029389;28;20215;-67
2022/12/14 07:26:49;;;;;;;3.15;2.65;;;-1.20;97.90;;;;;;5040172;28;20208;-67
2022/12/14 07:29:16;;;;;;;2.67;2.42;;;-1.10;97.80;;;;;;5022909;28;20224;-69
2022/12/14 07:31:42;;;;;;;5.78;3.15;;;-1.10;97.60;;;;;;5027190;28;20677;-68
2022/12/14 07:34:12;;;;;;;3.88;3.58;;;-1.10;97.60;;;;;;5028903;28;20586;-67
2022/12/14 07:36:42;;;;;;;3.72;2.67;;;-1.00;97.60;;;;;;5038505;28;20202;-69
2022/12/14 07:39:12;;;;;;;1.67;1.67;;;-1.10;97.60;;;;;;5042675;28;20203;-67
2022/12/14 07:41:39;;;;;;;2.75;2.40;;;-1.30;97.60;;;;;;5039851;28;20971;-69
2022/12/14 07:44:06;;;;;;;2.70;1.98;;;-1.20;97.90;;;;;;5029665;28;20196;-66
2022/12/14 07:46:32;;;;;;;3.85;3.65;;;-1.20;98.00;;;;;;5027454;28;20299;-67
2022/12/14 07:49:00;;;;;;;3.17;2.83;;;-1.20;98.10;;;;;;5028361;28;20207;-68
2022/12/14 07:51:29;;;;;;;3.70;3.38;;;-1.10;98.00;;;;;;5038530;28;20203;-67
2022/12/14 07:53:58;;;;;;;0.95;0.95;;;-0.90;97.90;;;;;;5043713;28;20339;-67
2022/12/14 07:56:26;;;;;;;2.85;2.63;;;-0.90;97.70;;;;;;5043691;28;20206;-67
2022/12/14 07:58:55;;;;;;;3.72;2.00;;;-0.80;97.30;;;;;;5028803;28;20202;-67
2022/12/14 08:01:24;;;;;;;1.98;1.88;;;-0.80;97.00;;;;;;5030571;28;20748;-67
2022/12/14 08:03:53;;;;;;;4.78;2.55;;;-0.80;97.00;;;;;;5028764;28;20566;-68
2022/12/14 08:06:21;;;;;;;3.40;3.20;;;-0.90;97.10;;;;;;5033299;28;20199;-68
2022/12/14 08:08:48;;;;;;;2.58;2.45;;;-1.00;97.30;;;;;;5028838;28;20191;-68
2022/12/14 08:11:17;;;;;;;5.15;4.47;;;-0.90;97.10;;;;;;5018733;28;20209;-66
2022/12/14 08:13:45;;;;;;;4.13;3.92;;;-0.80;97.10;;;;;;5029033;28;20230;-68
2022/12/14 08:16:15;;;;;;;2.58;1.98;;;-0.90;97.10;;;;;;5029382;28;20211;-69
2022/12/14 08:18:42;;;;;;;3.38;3.15;;;-0.70;97.10;;;;;;5028592;28;20207;-68
2022/12/14 08:21:11;;;;;;;3.17;2.40;;;-0.60;96.50;;;;;;5033627;28;20936;-69
2022/12/14 08:23:40;;;;;;;5.13;3.95;;;-0.70;96.70;;;;;;5043478;28;20202;-68
2022/12/14 08:26:07;;;;;;;2.55;2.35;;;-0.70;96.80;;;;;;5034141;28;20203;-68
2022/12/14 08:28:36;;;;;;;2.90;2.63;;;-0.70;96.90;;;;;;5028567;28;20333;-69
2022/12/14 08:31:05;;;;;;;3.15;3.05;;;-0.70;97.20;;;;;;5028664;28;21025;-69
2022/12/14 08:33:33;;;;;;;2.03;1.90;;;-0.70;97.00;;;;;;5027619;28;20577;-68
2022/12/14 08:36:05;;;;;;;2.60;2.50;;;-0.70;96.80;;;;;;5032337;28;20196;-69
2022/12/14 08:38:32;;;;;;;2.95;1.85;;;-0.60;96.80;;;;;;5048504;28;20596;-68
2022/12/14 08:41:02;;;;;;;3.45;3.25;;;-0.60;96.70;;;;;;5046957;28;20563;-69
2022/12/14 08:43:29;;;;;;;6.30;2.85;;;-0.60;96.80;;;;;;5033749;28;20200;-69
2022/12/14 08:45:57;;;;;;;4.25;3.85;;;-0.60;96.80;;;;;;5028763;28;20674;-70
2022/12/14 08:48:24;;;;;;;2.70;2.50;;;-0.70;97.00;;;;;;5030829;28;20283;-68
2022/12/14 08:50:51;;;;;;;3.00;2.30;;;-0.70;97.10;;;;;;5030053;28;20192;-69
2022/12/14 08:53:18;;;;;;;9.50;3.60;;;-0.70;97.10;;;;;;5027397;28;20300;-68
2022/12/14 08:55:46;;;;;;;2.45;2.25;;;-0.60;97.10;;;;;;5026468;28;20246;-68
2022/12/14 08:58:13;;;;;;;7.40;4.00;;;-0.60;96.80;;;;;;5028520;28;20215;-68
2022/12/14 09:00:40;;;;;;;3.17;2.97;;;-0.50;96.90;;;;;;5026749;28;20211;-69
2022/12/14 09:03:08;;;;;;;2.40;2.17;;;-0.30;96.80;;;;;;5028892;28;20612;-68
2022/12/14 09:05:35;;;;;;;4.05;2.33;;;-0.30;97.20;;;;;;5028156;28;20211;-71
2022/12/14 09:08:01;;;;;;;3.10;3.00;;;-0.40;97.80;;;;;;5028143;28;20747;-68
2022/12/14 09:10:28;;;;;;;4.72;3.30;;;-0.30;97.60;;;;;;5028044;28;20617;-67
2022/12/14 09:12:55;;;;;;;11.10;4.20;;;-0.30;98.20;;;;;;5028084;28;20286;-69
2022/12/14 09:15:22;;;;;;;5.57;2.80;;;-0.30;97.90;;;;;;5027956;28;20235;-69
2022/12/14 09:17:49;;;;;;;3.13;2.92;;;-0.30;98.40;;;;;;5027297;28;20674;-69
2022/12/14 09:20:17;;;;;;;9.45;3.70;;;-0.30;98.50;;;;;;5028059;28;20214;-68
2022/12/14 09:22:44;;;;;;;3.28;2.72;;;-0.20;98.20;;;;;;5028108;28;20197;-69
2022/12/14 09:25:11;;;;;;;2.20;2.05;;;-0.30;98.40;;;;;;5028313;28;20623;-68
2022/12/14 09:27:38;;;;;;;2.83;2.65;;;-0.30;98.50;;;;;;5026245;28;20624;-69
2022/12/14 09:30:06;;;;;;;2.72;2.53;;;-0.20;98.50;;;;;;5028230;28;20563;-66
2022/12/14 09:32:32;;;;;;;2.03;1.92;;;-0.20;98.30;;;;;;5027790;28;20205;-69
2022/12/14 09:34:59;;;;;;;6.28;2.28;;;-0.20;98.30;;;;;;5027775;28;20592;-70
2022/12/14 09:37:27;;;;;;;7.57;3.20;;;-0.10;98.30;;;;;;5027238;28;20218;-68
2022/12/14 09:39:54;;;;;;;2.92;2.45;;;-0.20;98.30;;;;;;5027500;28;20227;-68
2022/12/14 09:42:39;;;;;;;6.03;3.13;;;-0.30;98.50;;;;;;5027052;28;20649;-68
2022/12/14 09:45:17;;;;;;;2.30;2.10;;;-0.30;99.10;;;;;;5027669;28;20702;-68
2022/12/14 09:47:50;;;;;;;3.88;3.58;;;-0.30;99.10;;;;;;5026899;28;20294;-69
2022/12/14 09:50:20;;;;;;;6.18;3.70;;;-0.30;99.40;;;;;;5027668;28;20212;-69
2022/12/14 09:52:51;;;;;;;6.15;3.45;;;-0.30;99.30;;;;;;5027115;28;20235;-68
2022/12/14 09:55:22;;;;;;;2.70;2.60;;;-0.40;99.60;;;;;;5027567;28;20243;-68
2022/12/14 09:57:53;;;;;;;3.85;3.55;;;-0.30;99.90;;;;;;5027499;28;20291;-69
2022/12/14 10:00:20;;;;;;;2.08;1.88;;;-0.20;99.80;;;;;;5027419;28;20211;-68
2022/12/14 10:03:01;;;;;;;7.45;3.25;;;-0.30;99.80;;;;;;5027345;28;20484;-68
2022/12/14 10:05:53;;;;;;;4.43;4.10;;;-0.40;99.90;;;;;;5027542;28;20299;-68
2022/12/14 10:08:27;;;;;;;4.05;3.25;;;-0.40;99.90;;;;;;5027318;28;20610;-69
2022/12/14 10:11:03;;;;;;;2.80;1.88;;;-0.40;99.90;;;;;;5026862;28;20200;-68
2022/12/14 10:13:42;;;;;;;3.38;3.00;;;-0.40;99.90;;;;;;5026534;28;20196;-68
2022/12/14 10:16:20;;;;;;;1.08;1.08;;;-0.40;99.90;;;;;;5026907;28;20462;-69
2022/12/14 10:19:12;;;;;;;4.65;4.18;;;-0.40;99.90;;;;;;5027513;28;20259;-68
2022/12/14 10:21:46;;;;;;;4.65;4.10;;;-0.40;99.90;;;;;;5027040;28;20541;-69
2022/12/14 10:24:20;;;;;;;4.47;4.18;;;-0.40;99.90;;;;;;5027313;28;20294;-68
2022/12/14 10:26:50;;;;;;;5.28;4.88;;;-0.20;99.90;;;;;;5026378;28;20208;-68
2022/12/14 10:29:24;;;;;;;2.38;2.22;;;-0.10;99.90;;;;;;5027154;28;20244;-68
2022/12/14 10:32:00;;;;;;;3.95;3.22;;;-0.10;99.90;;;;;;5026945;28;20281;-68
2022/12/14 10:34:29;;;;;;;3.40;3.10;;;-0.20;99.90;;;;;;5026669;28;20238;-68
2022/12/14 10:37:10;;;;;;;11.00;4.07;;;-0.20;99.90;;;;;;5026503;28;20303;-69
2022/12/14 10:39:50;;;;;;;3.60;3.20;;;-0.10;99.90;;;;;;5026928;28;20204;-69
2022/12/14 10:42:27;;;;;;;6.43;4.38;;;0.00;99.90;;;;;;5026602;28;20207;-70
2022/12/14 10:45:01;;;;;;;8.23;4.95;;;-0.10;99.90;;;;;;5026112;28;20679;-68
2022/12/14 10:47:34;;;;;;;10.45;6.18;;;-0.10;99.90;;;;;;5026892;28;20214;-69
2022/12/14 10:50:11;;;;;;;6.82;4.22;;;0.10;99.90;;;;;;5027055;28;20286;-68
2022/12/14 10:52:41;;;;;;;3.03;2.92;;;0.00;99.90;;;;;;5026935;28;20240;-68
2022/12/14 10:55:15;;;;;;;4.43;3.90;;;-0.10;99.90;;;;;;5025652;28;20233;-69
2022/12/14 10:57:42;;;;;;;3.35;2.67;;;-0.10;99.90;;;;;;5026580;28;20202;-68
2022/12/14 11:00:13;;;;;;;4.13;3.70;;;0.00;99.90;;;;;;5027143;28;20201;-68
2022/12/14 11:02:43;;;;;;;2.90;2.70;;;-0.10;99.90;;;;;;5026903;28;20212;-69
2022/12/14 11:05:23;;;;;;;10.38;4.03;;;0.00;99.90;;;;;;5026755;28;20232;-68
2022/12/14 11:07:50;;;;;;;7.20;2.17;;;0.00;99.90;;;;;;5025502;28;20203;-68
2022/12/14 11:10:21;;;;;;;5.35;4.40;;;0.00;99.90;;;;;;5026640;28;20205;-69
2022/12/14 11:13:03;;;;;;;7.30;4.43;;;0.00;99.90;;;;;;5026662;28;20663;-68
2022/12/14 11:15:34;;;;;;;10.43;4.65;;;0.00;99.90;;;;;;5026353;28;20235;-69
2022/12/14 11:18:04;;;;;;;9.77;4.97;;;0.00;99.90;;;;;;5025966;28;20575;-69
2022/12/14 11:20:33;;;;;;;6.30;3.78;;;0.10;99.90;;;;;;5026771;28;20275;-69
2022/12/14 11:23:07;;;;;;;2.95;2.85;;;0.10;99.90;;;;;;5027323;28;20213;-68
2022/12/14 11:25:39;;;;;;;2.20;2.10;;;0.10;99.90;;;;;;5029437;28;20692;-68
2022/12/14 11:28:18;;;;;;;2.42;2.33;;;0.10;99.90;;;;;;5030188;28;20204;-68
2022/12/14 11:30:54;;;;;;;2.17;2.08;;;0.00;99.90;;;;;;5030025;28;20315;-69
2022/12/14 11:33:22;;;;;;;4.10;3.25;;;0.00;99.90;;;;;;5030373;28;20358;-68
2022/12/14 11:35:50;;;;;;;3.13;2.85;;;0.10;99.90;;;;;;5029479;28;20350;-68
2022/12/14 11:38:17;;;;;;;3.92;2.40;;;0.10;99.90;;;;;;5029933;28;20678;-69
2022/12/14 11:40:47;;;;;;;8.32;5.03;;;0.10;99.90;;;;;;5029567;28;20205;-69
2022/12/14 11:43:25;;;;;;;4.82;2.60;;;0.20;99.90;;;;;;5029298;28;20502;-68
2022/12/14 11:45:54;;;;;;;3.75;2.88;;;0.20;99.90;;;;;;5029252;28;20216;-68
2022/12/14 11:48:22;;;;;;;9.65;5.55;;;0.20;99.90;;;;;;5030104;28;20700;-69
2022/12/14 11:50:52;;;;;;;3.25;2.95;;;0.30;99.90;;;;;;5029846;28;20236;-68
2022/12/14 11:53:21;;;;;;;2.80;2.55;;;0.30;99.90;;;;;;5029562;28;20208;-69
2022/12/14 11:55:55;;;;;;;5.75;4.53;;;0.30;99.90;;;;;;5028603;28;20228;-69
2022/12/14 11:58:25;;;;;;;11.07;5.78;;;0.40;99.90;;;;;;5029886;28;20205;-67
2022/12/14 12:00:59;;;;;;;4.35;2.40;;;0.40;99.90;;;;;;5029877;28;20205;-68
2022/12/14 12:03:29;;;;;;;2.40;2.17;;;0.50;99.90;;;;;;5030000;28;20567;-68
2022/12/14 12:06:01;;;;;;;13.07;4.85;;;0.60;99.90;;;;;;5027903;28;20666;-69
2022/12/14 12:08:30;;;;;;;4.43;4.03;;;0.70;99.90;;;;;;5029346;28;20604;-68
2022/12/14 12:11:00;;;;;;;5.05;3.53;;;0.70;99.90;;;;;;5029132;28;20209;-69
2022/12/14 12:13:30;;;;;;;12.65;6.38;;;0.80;99.90;;;;;;5028812;28;20765;-68
2022/12/14 12:16:00;;;;;;;3.17;2.88;;;0.90;99.90;;;;;;5028600;28;20228;-68
2022/12/14 12:18:32;;;;;;;8.50;5.45;;;0.90;99.90;;;;;;5028689;28;20205;-67
2022/12/14 12:21:04;;;;;;;9.07;5.15;;;0.90;99.90;;;;;;5029344;28;20215;-67
2022/12/14 12:23:36;;;;;;;4.38;2.78;;;0.90;99.90;;;;;;5029670;28;20791;-69
2022/12/14 12:26:12;;;;;;;10.43;5.53;;;0.90;99.90;;;;;;5028442;28;20204;-68
2022/12/14 12:28:44;;;;;;;7.28;6.60;;;0.90;99.90;;;;;;5029280;28;20595;-70
2022/12/14 12:31:17;;;;;;;6.90;3.97;;;0.80;99.90;;;;;;5028868;28;20228;-68
2022/12/14 12:33:49;;;;;;;5.32;3.90;;;0.80;99.90;;;;;;5029355;28;20240;-69
2022/12/14 12:36:18;;;;;;;6.38;4.68;;;0.70;99.90;;;;;;5028478;28;20601;-68
2022/12/14 12:38:57;;;;;;;10.15;4.32;;;0.70;99.90;;;;;;5028913;28;20575;-68
2022/12/14 12:41:36;;;;;;;8.82;5.88;;;0.70;99.90;;;;;;5028132;28;20211;-68
2022/12/14 12:44:18;;;;;;;3.92;3.67;;;0.80;99.90;;;;;;5028828;28;20284;-67
2022/12/14 12:46:55;;;;;;;7.43;3.65;;;0.60;99.90;;;;;;5028764;28;20200;-68
2022/12/14 12:49:22;;;;;;;3.35;3.05;;;0.50;99.90;;;;;;5029252;28;20200;-68
2022/12/14 12:51:53;;;;;;;6.07;5.57;;;0.40;99.90;;;;;;5027929;28;20205;-67
2022/12/14 12:54:25;;;;;;;3.78;3.38;;;0.40;99.90;;;;;;5028926;28;20205;-69
2022/12/14 12:56:56;;;;;;;8.18;5.85;;;0.40;99.90;;;;;;5028050;28;20229;-68
2022/12/14 12:59:33;;;;;;;3.85;2.85;;;0.50;99.90;;;;;;5028572;28;20621;-68
2022/12/14 13:02:07;;;;;;;14.15;8.00;;;0.40;99.90;;;;;;5028409;28;20200;-68
2022/12/14 13:04:40;;;;;;;4.88;4.47;;;0.40;99.90;;;;;;5028686;28;20222;-68
2022/12/14 13:07:15;;;;;;;5.93;3.20;;;0.40;99.90;;;;;;5028754;28;20200;-68
2022/12/14 13:09:47;;;;;;;3.80;3.58;;;0.40;99.90;;;;;;5028166;28;20211;-68
2022/12/14 13:12:23;;;;;;;3.72;3.08;;;0.20;99.90;;;;;;5028150;28;20196;-69
2022/12/14 13:14:51;;;;;;;4.65;4.35;;;0.20;99.90;;;;;;5027451;28;20543;-68
2022/12/14 13:17:27;;;;;;;8.38;4.90;;;0.30;99.90;;;;;;5027826;28;20201;-68